Malmstrom A F B, Montana
Current Conditions -  °F | °C
As of 9:56 AM on Thursday 30 Oct 2014 (Local Time) from KGFA Reporting Station
Clear Clear  
Wind Chill: 36°   Ceiling: Unl
Heat Index: 40°   Visibility: 10mi
Dew Point: 34°   Wind: 7mph
Humidity: 78%   Direction: 150°SSE
Pressure: 30.28"   Gusts: NA
Location:  47.5102°N, 111.1959°W
Report Text: KGFA 301556Z AUTO 15006KT 10SM CLR 05/01 A3028 RMK AO2 SLP279 T00470012
Loading
Personal Weather Stations






























Interactive Weather Map
Tropical Storm Tracking
New forecast layout! Learn more

10-Day Weather Forecast

Advertisements
Track Severe Weather on mobile